Time;durP1;ratioP1;P1;durP2;ratioP2;P2;SDS_P1;SDS_P2;PMS_P1;PMS_P2;Temp;Humidity;BMP_temperature;BMP_pressure;BME280_temperature;BME280_humidity;BME280_pressure;Samples;Min_cycle;Max_cycle;Signal;HPM_P1;HPM_P2
2023/08/15 00:01:27;;;;;;;4.20;3.55;;;22.10;99.90;;;;;;5033110;28;20079;-70
2023/08/15 00:03:53;;;;;;;5.93;5.25;;;21.90;99.90;;;;;;5041490;28;20026;-70
2023/08/15 00:06:20;;;;;;;8.63;5.47;;;21.80;99.90;;;;;;5041722;28;20041;-70
2023/08/15 00:08:53;;;;;;;10.45;6.93;;;21.70;99.90;;;;;;5030834;28;20022;-70
2023/08/15 00:11:19;;;;;;;8.50;5.60;;;21.70;99.90;;;;;;5039179;28;20037;-70
2023/08/15 00:13:45;;;;;;;10.95;6.57;;;21.70;99.90;;;;;;5052010;28;20383;-70
2023/08/15 00:16:10;;;;;;;15.30;7.47;;;21.70;99.90;;;;;;5048966;28;20033;-70
2023/08/15 00:18:36;;;;;;;13.32;8.73;;;21.60;99.90;;;;;;5046550;28;20029;-70
2023/08/15 00:21:01;;;;;;;10.70;7.32;;;21.60;99.90;;;;;;5042940;28;20538;-70
2023/08/15 00:23:27;;;;;;;11.23;7.72;;;21.60;99.90;;;;;;5033397;28;20030;-70
2023/08/15 00:25:52;;;;;;;11.48;5.72;;;21.50;99.90;;;;;;5041516;28;20025;-70
2023/08/15 00:28:18;;;;;;;7.32;5.30;;;21.40;99.90;;;;;;5048825;28;20128;-70
2023/08/15 00:30:43;;;;;;;8.38;5.97;;;21.30;99.90;;;;;;5035858;28;20554;-70
2023/08/15 00:33:09;;;;;;;7.47;4.22;;;21.20;99.90;;;;;;5042928;28;20738;-69
2023/08/15 00:35:34;;;;;;;9.35;5.60;;;21.20;99.90;;;;;;5032868;28;20034;-70
2023/08/15 00:38:00;;;;;;;9.48;5.68;;;21.20;99.90;;;;;;5045647;28;20047;-70
2023/08/15 00:40:25;;;;;;;5.28;4.50;;;21.20;99.90;;;;;;5037737;28;20022;-70
2023/08/15 00:42:51;;;;;;;9.27;4.53;;;21.20;99.90;;;;;;5033802;28;20029;-70
2023/08/15 00:45:16;;;;;;;5.15;3.95;;;21.20;99.90;;;;;;5041382;28;20080;-70
2023/08/15 00:47:42;;;;;;;9.20;4.97;;;21.20;99.90;;;;;;5042060;28;20487;-70
2023/08/15 00:50:09;;;;;;;7.00;5.03;;;21.30;99.90;;;;;;5042008;28;20033;-70
2023/08/15 00:52:34;;;;;;;11.32;5.72;;;21.30;99.90;;;;;;5045129;28;20487;-70
2023/08/15 00:55:00;;;;;;;4.97;4.32;;;21.30;99.90;;;;;;5039248;28;20106;-70
2023/08/15 00:57:26;;;;;;;6.18;3.65;;;21.30;99.90;;;;;;5038924;28;20030;-70
2023/08/15 00:59:51;;;;;;;6.68;4.97;;;21.20;99.90;;;;;;5033167;28;20103;-70
2023/08/15 01:02:17;;;;;;;7.55;4.55;;;21.20;99.90;;;;;;5037583;28;20051;-70
2023/08/15 01:04:43;;;;;;;4.97;3.83;;;21.20;99.90;;;;;;5045734;28;20052;-70
2023/08/15 01:07:09;;;;;;;5.78;3.78;;;21.30;99.90;;;;;;5053991;28;20044;-70
2023/08/15 01:09:36;;;;;;;12.85;4.70;;;21.50;99.90;;;;;;5039067;28;20022;-70
2023/08/15 01:12:07;;;;;;;9.15;3.80;;;21.50;99.90;;;;;;5041868;28;20084;-70
2023/08/15 01:14:47;;;;;;;7.72;4.10;;;21.50;99.90;;;;;;5033558;28;20028;-70
2023/08/15 01:17:18;;;;;;;4.25;3.72;;;21.50;99.90;;;;;;5037433;28;20479;-70
2023/08/15 01:19:48;;;;;;;10.32;4.50;;;21.50;99.90;;;;;;5036996;28;20103;-70
2023/08/15 01:22:27;;;;;;;13.50;3.25;;;21.50;99.90;;;;;;5040700;28;20033;-70
2023/08/15 01:24:53;;;;;;;5.93;3.75;;;21.60;99.90;;;;;;5033204;28;20040;-70
2023/08/15 01:27:18;;;;;;;8.10;3.88;;;21.60;99.90;;;;;;5045484;28;20021;-70
2023/08/15 01:29:44;;;;;;;9.73;4.05;;;21.60;99.90;;;;;;5036948;28;20021;-70
2023/08/15 01:32:17;;;;;;;4.15;3.30;;;21.50;99.90;;;;;;5031812;28;20030;-70
2023/08/15 01:34:52;;;;;;;8.40;4.68;;;21.50;99.90;;;;;;5042666;28;20112;-70
2023/08/15 01:37:25;;;;;;;8.48;3.35;;;21.50;99.90;;;;;;5044905;28;20021;-70
2023/08/15 01:39:55;;;;;;;6.60;3.33;;;21.50;99.90;;;;;;5031670;28;20029;-70
2023/08/15 01:42:22;;;;;;;6.68;3.42;;;21.50;99.90;;;;;;5045027;28;20017;-70
2023/08/15 01:44:48;;;;;;;4.03;3.65;;;21.50;99.90;;;;;;5048014;28;20030;-70
2023/08/15 01:47:14;;;;;;;5.45;3.30;;;21.60;99.90;;;;;;5033043;28;20387;-70
2023/08/15 01:49:40;;;;;;;7.45;4.30;;;21.50;99.90;;;;;;5033878;28;20022;-70
2023/08/15 01:52:05;;;;;;;4.90;3.50;;;21.50;99.90;;;;;;5040186;28;20026;-69
2023/08/15 01:54:31;;;;;;;7.35;3.15;;;21.50;99.90;;;;;;5044708;28;20108;-70
2023/08/15 01:56:56;;;;;;;7.25;3.72;;;21.50;99.90;;;;;;5042919;28;20112;-70
2023/08/15 01:59:22;;;;;;;8.93;2.67;;;21.50;99.90;;;;;;5040011;28;20554;-70
2023/08/15 02:01:47;;;;;;;5.75;3.30;;;21.30;99.90;;;;;;5036176;28;20026;-70
2023/08/15 02:04:13;;;;;;;3.97;3.42;;;21.30;99.90;;;;;;5044010;28;20021;-70
2023/08/15 02:06:38;;;;;;;7.03;3.53;;;21.30;99.90;;;;;;5032401;28;20591;-70
2023/08/15 02:09:04;;;;;;;14.43;4.30;;;21.30;99.90;;;;;;5040591;28;20575;-70
2023/08/15 02:11:29;;;;;;;3.88;3.03;;;21.30;99.90;;;;;;5040457;28;20026;-69
2023/08/15 02:13:55;;;;;;;6.88;3.47;;;21.30;99.90;;;;;;5050628;28;20056;-70
2023/08/15 02:16:20;;;;;;;5.55;3.40;;;21.30;99.90;;;;;;5040512;28;20083;-70
2023/08/15 02:18:46;;;;;;;6.28;4.13;;;21.30;99.90;;;;;;5035749;28;20029;-70
2023/08/15 02:21:11;;;;;;;5.45;3.55;;;21.20;99.90;;;;;;5037062;28;20052;-70
2023/08/15 02:23:37;;;;;;;3.63;2.83;;;21.10;99.90;;;;;;5036856;28;20039;-70
2023/08/15 02:26:02;;;;;;;5.07;3.17;;;21.20;99.90;;;;;;5034832;28;20025;-70
2023/08/15 02:28:28;;;;;;;6.68;3.22;;;21.20;99.90;;;;;;5039511;28;20021;-70
2023/08/15 02:30:54;;;;;;;6.25;3.10;;;21.30;99.90;;;;;;5032325;28;20018;-70
2023/08/15 02:33:19;;;;;;;8.05;3.05;;;21.30;99.90;;;;;;5044233;28;20032;-70
2023/08/15 02:35:45;;;;;;;3.33;2.90;;;21.40;99.90;;;;;;5037924;28;20075;-70
2023/08/15 02:38:10;;;;;;;8.30;4.07;;;21.30;99.90;;;;;;5032019;28;20467;-70
2023/08/15 02:40:36;;;;;;;4.38;2.90;;;21.20;99.90;;;;;;5034052;28;20013;-70
2023/08/15 02:43:01;;;;;;;7.03;3.30;;;21.20;99.90;;;;;;5040399;28;20013;-70
2023/08/15 02:45:27;;;;;;;5.53;3.42;;;21.20;99.90;;;;;;5036606;28;20517;-70
2023/08/15 02:47:52;;;;;;;4.40;3.00;;;21.10;99.90;;;;;;5040874;28;20028;-70
2023/08/15 02:50:18;;;;;;;3.95;2.90;;;21.10;99.90;;;;;;5044798;28;20082;-70
2023/08/15 02:52:43;;;;;;;3.50;2.65;;;21.10;99.90;;;;;;5033559;28;20029;-70
2023/08/15 02:55:09;;;;;;;4.35;3.25;;;21.00;99.90;;;;;;5040892;28;20035;-70
2023/08/15 02:57:35;;;;;;;4.38;2.90;;;21.00;99.90;;;;;;5039967;28;20048;-70
2023/08/15 03:00:00;;;;;;;5.95;3.50;;;20.90;99.90;;;;;;5031741;28;20026;-70
2023/08/15 03:02:27;;;;;;;6.57;2.92;;;20.80;99.90;;;;;;5039511;28;20029;-70
2023/08/15 03:04:52;;;;;;;5.32;3.38;;;20.80;99.90;;;;;;5045467;28;20484;-70
2023/08/15 03:07:18;;;;;;;5.53;3.15;;;20.80;99.90;;;;;;5039145;28;20049;-70
2023/08/15 03:09:43;;;;;;;6.93;3.63;;;20.70;99.90;;;;;;5039651;28;20036;-70
2023/08/15 03:12:09;;;;;;;3.58;3.05;;;20.70;99.90;;;;;;5039487;28;20114;-70
2023/08/15 03:14:34;;;;;;;7.95;2.88;;;20.80;99.90;;;;;;5032368;28;20029;-70
2023/08/15 03:17:02;;;;;;;5.55;3.20;;;20.80;99.90;;;;;;5030593;28;20068;-69
2023/08/15 03:19:27;;;;;;;4.45;3.25;;;20.90;99.90;;;;;;5044859;28;20017;-70
2023/08/15 03:21:53;;;;;;;4.53;2.88;;;20.80;99.90;;;;;;5051791;28;20051;-70
2023/08/15 03:24:18;;;;;;;4.03;3.17;;;20.80;99.90;;;;;;5033096;28;20530;-70
2023/08/15 03:26:44;;;;;;;4.00;3.70;;;20.70;99.90;;;;;;5039394;28;20028;-70
2023/08/15 03:29:10;;;;;;;4.65;3.45;;;20.60;99.90;;;;;;5043049;28;20025;-70
2023/08/15 03:31:35;;;;;;;5.07;3.15;;;20.60;99.90;;;;;;5032739;28;20021;-70
2023/08/15 03:34:01;;;;;;;6.38;3.03;;;20.60;99.90;;;;;;5030223;28;20116;-70
2023/08/15 03:36:26;;;;;;;2.47;2.28;;;20.70;99.90;;;;;;5033089;28;20128;-70
2023/08/15 03:38:52;;;;;;;7.28;2.90;;;20.70;99.90;;;;;;5030579;28;20025;-70
2023/08/15 03:41:18;;;;;;;7.80;3.00;;;20.60;99.90;;;;;;5032911;28;20071;-70
2023/08/15 03:43:44;;;;;;;5.72;2.70;;;20.50;99.90;;;;;;5035412;28;20475;-70
2023/08/15 03:46:09;;;;;;;6.38;2.85;;;20.60;99.90;;;;;;5034458;28;20113;-71
2023/08/15 03:48:35;;;;;;;4.20;2.95;;;20.70;99.90;;;;;;5026738;28;20021;-71
2023/08/15 03:51:01;;;;;;;4.90;2.92;;;20.70;99.90;;;;;;5025592;28;20388;-71
2023/08/15 03:53:27;;;;;;;6.22;2.97;;;20.70;99.90;;;;;;5034532;28;20095;-71
2023/08/15 03:55:54;;;;;;;8.23;3.00;;;20.70;99.90;;;;;;5026685;28;20549;-72
2023/08/15 03:58:21;;;;;;;9.68;3.03;;;20.70;99.90;;;;;;5020985;28;20029;-71
2023/08/15 04:00:47;;;;;;;8.30;3.13;;;20.60;99.90;;;;;;5025875;28;20438;-70
2023/08/15 04:03:13;;;;;;;4.45;2.83;;;20.60;99.90;;;;;;5029785;28;20484;-69
2023/08/15 04:05:38;;;;;;;6.15;3.40;;;20.60;99.90;;;;;;5035528;28;20078;-68
2023/08/15 04:08:04;;;;;;;5.60;3.22;;;20.70;99.90;;;;;;5036902;28;20026;-69
2023/08/15 04:10:30;;;;;;;6.07;3.03;;;20.60;99.90;;;;;;5034405;28;20123;-69
2023/08/15 04:12:56;;;;;;;9.30;3.72;;;20.60;99.90;;;;;;5047407;28;20078;-70
2023/08/15 04:15:22;;;;;;;3.63;2.88;;;20.60;99.90;;;;;;5034987;28;20033;-70
2023/08/15 04:17:48;;;;;;;12.80;3.95;;;20.70;99.90;;;;;;5036379;28;20631;-70
2023/08/15 04:20:13;;;;;;;7.32;3.20;;;20.90;99.90;;;;;;5040661;28;20048;-70
2023/08/15 04:22:39;;;;;;;3.35;2.72;;;20.90;99.90;;;;;;5030788;28;20042;-70
2023/08/15 04:25:09;;;;;;;5.80;3.70;;;20.90;99.90;;;;;;5030329;28;20026;-69
2023/08/15 04:27:36;;;;;;;5.68;3.17;;;21.00;99.90;;;;;;5022246;28;20107;-72
2023/08/15 04:30:03;;;;;;;6.70;2.70;;;21.10;99.90;;;;;;5034562;28;20028;-73
2023/08/15 04:32:28;;;;;;;3.78;2.88;;;21.10;99.90;;;;;;5033341;28;20017;-72
2023/08/15 04:34:54;;;;;;;3.38;2.88;;;21.20;99.90;;;;;;5043725;28;20032;-72
2023/08/15 04:37:19;;;;;;;4.88;3.15;;;21.20;99.90;;;;;;5034046;28;20448;-73
2023/08/15 04:39:45;;;;;;;8.43;3.55;;;21.30;99.90;;;;;;5040196;28;20096;-73
2023/08/15 04:42:11;;;;;;;4.40;2.70;;;21.50;99.90;;;;;;5035365;28;20036;-72
2023/08/15 04:44:36;;;;;;;5.60;3.05;;;21.70;99.90;;;;;;5032230;28;20040;-73
2023/08/15 04:47:02;;;;;;;6.20;3.45;;;21.90;99.90;;;;;;5031871;28;20173;-73
2023/08/15 04:49:27;;;;;;;5.97;2.95;;;22.10;99.90;;;;;;5034498;28;20029;-72
2023/08/15 04:51:53;;;;;;;6.82;3.42;;;22.20;99.90;;;;;;5031504;28;20030;-73
2023/08/15 04:54:18;;;;;;;3.85;2.75;;;22.40;99.90;;;;;;5033666;28;20099;-71
2023/08/15 04:56:44;;;;;;;5.55;3.30;;;22.50;99.90;;;;;;5030027;28;20069;-71
2023/08/15 04:59:09;;;;;;;5.82;2.58;;;22.60;99.90;;;;;;5026845;28;20033;-71
2023/08/15 05:01:35;;;;;;;6.32;2.97;;;22.70;99.90;;;;;;5023971;28;20029;-71
2023/08/15 05:04:00;;;;;;;5.32;3.55;;;22.70;99.90;;;;;;5022494;28;20029;-71
2023/08/15 05:06:26;;;;;;;4.97;3.17;;;22.70;99.90;;;;;;5024336;28;20030;-71
2023/08/15 05:08:51;;;;;;;4.18;2.55;;;22.70;99.90;;;;;;5021791;28;20033;-71
2023/08/15 05:11:17;;;;;;;3.92;2.85;;;22.70;99.90;;;;;;5024076;28;20060;-71
2023/08/15 05:13:43;;;;;;;7.22;3.13;;;22.80;99.90;;;;;;5024879;28;20032;-72
2023/08/15 05:16:08;;;;;;;6.55;3.13;;;22.80;99.90;;;;;;5025363;28;20040;-72
2023/08/15 05:18:34;;;;;;;7.00;2.85;;;22.90;99.90;;;;;;5023370;28;20048;-72
2023/08/15 05:20:59;;;;;;;9.50;3.72;;;22.90;99.90;;;;;;5023477;28;20459;-72
2023/08/15 05:23:25;;;;;;;13.82;3.70;;;22.90;99.90;;;;;;5024344;28;20037;-71
2023/08/15 05:25:51;;;;;;;4.22;3.45;;;22.90;99.90;;;;;;5021825;28;20112;-72
2023/08/15 05:28:16;;;;;;;9.45;3.67;;;22.80;99.90;;;;;;5021797;28;20025;-72
2023/08/15 05:30:43;;;;;;;9.05;2.80;;;22.80;99.90;;;;;;5023177;28;20029;-73
2023/08/15 05:33:08;;;;;;;4.78;3.53;;;22.80;99.90;;;;;;5022609;28;20037;-72
2023/08/15 05:35:34;;;;;;;9.35;3.60;;;22.80;99.90;;;;;;5020378;28;20029;-72
2023/08/15 05:38:00;;;;;;;9.10;3.72;;;22.80;99.90;;;;;;5024062;28;20025;-72
2023/08/15 05:40:26;;;;;;;7.97;4.50;;;22.80;99.90;;;;;;5024451;28;20056;-72
2023/08/15 05:42:52;;;;;;;11.80;3.53;;;22.80;99.90;;;;;;5024542;28;20033;-72
2023/08/15 05:45:17;;;;;;;5.55;3.05;;;22.80;99.90;;;;;;5022952;28;20079;-72
2023/08/15 05:47:43;;;;;;;6.38;2.65;;;22.80;99.90;;;;;;5023955;28;20037;-71
2023/08/15 05:50:09;;;;;;;3.90;2.88;;;22.80;99.90;;;;;;5021192;28;20094;-71
2023/08/15 05:52:35;;;;;;;3.58;3.13;;;22.80;99.90;;;;;;5022345;28;20034;-72
2023/08/15 05:55:00;;;;;;;8.98;3.00;;;22.70;99.90;;;;;;5023336;28;20479;-71
2023/08/15 05:57:26;;;;;;;4.47;2.85;;;22.80;99.90;;;;;;5022069;28;20062;-72
2023/08/15 05:59:52;;;;;;;5.70;2.83;;;22.80;99.90;;;;;;5023392;28;20380;-72
2023/08/15 06:02:18;;;;;;;4.82;2.65;;;22.90;99.90;;;;;;5023091;28;20087;-71
2023/08/15 06:04:44;;;;;;;5.43;3.60;;;23.00;99.90;;;;;;5022021;28;20037;-72
2023/08/15 06:07:09;;;;;;;6.80;3.55;;;23.10;99.90;;;;;;5022620;28;20399;-72
2023/08/15 06:09:35;;;;;;;5.57;2.65;;;23.10;99.90;;;;;;5021542;28;20585;-72
2023/08/15 06:12:01;;;;;;;13.95;3.78;;;23.10;99.90;;;;;;5020376;28;20425;-72
2023/08/15 06:14:26;;;;;;;8.43;4.05;;;23.00;99.90;;;;;;5021184;28;20036;-72
2023/08/15 06:16:52;;;;;;;7.07;2.78;;;23.00;99.90;;;;;;5022485;28;20060;-72
2023/08/15 06:19:18;;;;;;;9.35;3.30;;;22.90;99.90;;;;;;5021309;28;20115;-72
2023/08/15 06:21:44;;;;;;;5.70;3.08;;;22.90;99.90;;;;;;5021959;28;20057;-72
2023/08/15 06:24:11;;;;;;;3.47;2.58;;;22.80;99.90;;;;;;5020918;28;20087;-72
2023/08/15 06:26:37;;;;;;;5.65;3.17;;;22.70;99.90;;;;;;5021984;28;20044;-72
2023/08/15 06:29:06;;;;;;;4.47;3.28;;;22.70;99.90;;;;;;5021218;28;20392;-71
2023/08/15 06:31:33;;;;;;;5.53;4.50;;;22.70;99.90;;;;;;5022214;28;21723;-72
2023/08/15 06:33:59;;;;;;;4.95;3.50;;;22.70;99.90;;;;;;5022451;28;20022;-72
2023/08/15 06:36:25;;;;;;;8.25;4.07;;;22.80;99.90;;;;;;5021444;28;20022;-71
2023/08/15 06:38:50;;;;;;;7.60;4.07;;;22.80;99.90;;;;;;5024215;28;20026;-72
2023/08/15 06:41:16;;;;;;;8.10;3.45;;;22.90;99.90;;;;;;5031640;28;20033;-71
2023/08/15 06:43:43;;;;;;;5.38;3.13;;;23.10;99.90;;;;;;5021701;28;20083;-72
2023/08/15 06:46:08;;;;;;;10.00;3.80;;;23.20;99.90;;;;;;5020584;28;20417;-71
2023/08/15 06:48:34;;;;;;;6.53;3.33;;;23.30;99.90;;;;;;5021873;28;20025;-71
2023/08/15 06:50:59;;;;;;;7.88;3.63;;;23.30;99.90;;;;;;5021325;28;20116;-71
2023/08/15 06:53:25;;;;;;;5.55;3.38;;;23.20;99.90;;;;;;5028571;28;20067;-71
2023/08/15 06:55:51;;;;;;;6.68;2.70;;;23.10;99.90;;;;;;5032741;28;20017;-71
2023/08/15 06:58:17;;;;;;;7.70;4.25;;;23.00;99.90;;;;;;5036106;28;20476;-71
2023/08/15 07:00:44;;;;;;;10.77;4.70;;;22.90;99.90;;;;;;5023452;28;20048;-76
2023/08/15 07:03:10;;;;;;;8.13;5.60;;;22.80;99.90;;;;;;5025708;28;20113;-75
2023/08/15 07:05:35;;;;;;;10.68;5.20;;;22.70;99.90;;;;;;5026590;28;20148;-75
2023/08/15 07:08:03;;;;;;;14.80;6.72;;;22.50;99.90;;;;;;5025703;28;20029;-74
2023/08/15 07:10:30;;;;;;;12.68;6.57;;;22.40;99.90;;;;;;5027418;28;20053;-74
2023/08/15 07:12:56;;;;;;;13.68;4.95;;;22.20;99.90;;;;;;5024982;28;20036;-75
2023/08/15 07:17:46;;;;;;;4.15;3.42;;;21.70;99.90;;;;;;5027278;22;20064;-61
2023/08/15 07:20:14;;;;;;;7.72;3.63;;;21.50;99.90;;;;;;5020775;28;20121;-63
2023/08/15 07:22:43;;;;;;;6.68;3.00;;;21.40;99.90;;;;;;5019595;28;20388;-62
2023/08/15 07:25:10;;;;;;;4.90;3.17;;;21.30;99.90;;;;;;5023875;28;20506;-60
2023/08/15 07:27:36;;;;;;;7.65;3.85;;;21.20;99.90;;;;;;5016210;28;23589;-62
2023/08/15 07:30:02;;;;;;;6.45;3.88;;;21.20;99.90;;;;;;5019422;28;20082;-62
2023/08/15 07:32:28;;;;;;;3.92;3.10;;;21.20;99.90;;;;;;5018910;28;20048;-62
2023/08/15 07:34:54;;;;;;;15.55;4.32;;;21.20;99.90;;;;;;5020646;28;20025;-63
2023/08/15 07:37:20;;;;;;;11.95;3.85;;;21.20;99.90;;;;;;5018685;28;20032;-62
2023/08/15 07:39:45;;;;;;;4.68;3.15;;;21.10;99.90;;;;;;5017183;28;20025;-63
2023/08/15 07:42:11;;;;;;;8.50;3.63;;;21.10;99.90;;;;;;5017671;28;20116;-61
2023/08/15 07:44:37;;;;;;;9.00;3.25;;;21.10;99.90;;;;;;5020408;28;20029;-62
2023/08/15 07:47:03;;;;;;;4.60;3.38;;;21.10;99.90;;;;;;5022363;28;20025;-61
2023/08/15 07:49:30;;;;;;;9.90;3.65;;;21.00;99.90;;;;;;5018168;28;20389;-63
2023/08/15 07:51:56;;;;;;;6.63;2.90;;;21.00;99.90;;;;;;5018426;28;20455;-64
2023/08/15 07:54:22;;;;;;;7.35;3.20;;;21.00;99.90;;;;;;5017265;28;20112;-62
2023/08/15 07:56:47;;;;;;;6.90;2.58;;;21.10;99.90;;;;;;5019844;28;20800;-60
2023/08/15 07:59:13;;;;;;;6.13;2.35;;;21.10;99.90;;;;;;5029354;28;20029;-60
2023/08/15 08:01:38;;;;;;;7.65;3.22;;;21.20;99.90;;;;;;5018816;28;20032;-61
2023/08/15 08:04:04;;;;;;;6.57;3.50;;;21.40;99.90;;;;;;5019550;28;20080;-61
2023/08/15 08:06:30;;;;;;;19.33;10.32;;;21.60;99.90;;;;;;5020716;28;20032;-63
2023/08/15 08:08:57;;;;;;;10.23;4.60;;;21.80;99.90;;;;;;5021422;28;20025;-63
2023/08/15 08:11:22;;;;;;;5.03;3.50;;;22.00;99.90;;;;;;5020347;28;20756;-62
2023/08/15 08:13:48;;;;;;;8.50;4.25;;;22.20;99.90;;;;;;5020287;28;20033;-61
2023/08/15 08:16:14;;;;;;;6.15;4.75;;;22.30;99.90;;;;;;5015356;28;20072;-61
2023/08/15 08:18:39;;;;;;;6.15;2.85;;;22.40;99.90;;;;;;5019859;28;20032;-60
2023/08/15 08:21:06;;;;;;;13.82;10.85;;;22.50;99.90;;;;;;5021256;28;20373;-60
2023/08/15 08:23:31;;;;;;;4.18;2.78;;;22.60;99.90;;;;;;5022642;28;20073;-59
2023/08/15 08:25:57;;;;;;;7.10;4.97;;;22.70;99.90;;;;;;5018659;28;20033;-60
2023/08/15 08:28:22;;;;;;;5.75;3.78;;;22.90;99.90;;;;;;5020475;28;20037;-62
2023/08/15 08:30:48;;;;;;;7.05;4.78;;;23.10;99.90;;;;;;5021688;28;20168;-60
2023/08/15 08:33:14;;;;;;;5.03;2.78;;;23.10;99.90;;;;;;5027923;28;20044;-60
2023/08/15 08:35:39;;;;;;;3.35;1.73;;;23.20;99.90;;;;;;5025179;28;20036;-60
2023/08/15 08:38:05;;;;;;;5.60;4.22;;;23.20;99.90;;;;;;5024514;28;20036;-60
2023/08/15 08:40:31;;;;;;;2.17;1.48;;;23.20;99.90;;;;;;5023136;28;20025;-60
2023/08/15 08:42:58;;;;;;;9.90;3.65;;;23.30;99.90;;;;;;5027486;28;20017;-59
2023/08/15 08:45:26;;;;;;;14.70;3.58;;;23.30;99.90;;;;;;5025926;28;20068;-61
2023/08/15 08:47:53;;;;;;;15.50;4.05;;;23.40;99.90;;;;;;5028877;28;20056;-62
2023/08/15 08:50:19;;;;;;;9.25;3.33;;;23.50;99.90;;;;;;5027108;28;20029;-59
2023/08/15 08:52:48;;;;;;;8.43;2.20;;;23.60;99.90;;;;;;5043720;28;20028;-62
2023/08/15 08:55:15;;;;;;;6.25;1.73;;;23.60;99.90;;;;;;5051987;28;20116;-62
2023/08/15 08:57:47;;;;;;;7.68;2.60;;;23.70;99.90;;;;;;5051111;28;20021;-63
2023/08/15 09:00:14;;;;;;;7.05;2.30;;;23.80;99.90;;;;;;5031209;28;20033;-62
2023/08/15 09:02:40;;;;;;;5.97;2.80;;;23.90;99.90;;;;;;5030903;28;22231;-61
2023/08/15 09:05:07;;;;;;;11.55;2.40;;;24.10;99.90;;;;;;5031611;28;20471;-63
2023/08/15 09:07:34;;;;;;;13.15;1.85;;;24.20;99.90;;;;;;5030639;28;20025;-62
2023/08/15 09:10:00;;;;;;;14.85;2.60;;;24.20;99.90;;;;;;5025107;28;20102;-59
2023/08/15 09:12:39;;;;;;;7.70;1.90;;;24.30;99.90;;;;;;5029704;28;20726;-61
2023/08/15 09:15:06;;;;;;;5.30;1.77;;;24.40;99.90;;;;;;5026273;28;20475;-62
2023/08/15 09:17:32;;;;;;;7.30;1.98;;;24.40;99.90;;;;;;5022470;28;20732;-60
2023/08/15 09:20:09;;;;;;;5.20;2.17;;;24.50;99.90;;;;;;5026991;28;20021;-61
2023/08/15 09:22:39;;;;;;;4.13;1.75;;;24.70;99.90;;;;;;5021457;28;20029;-60
2023/08/15 09:25:04;;;;;;;5.40;1.30;;;24.80;99.90;;;;;;5023731;28;20104;-60
2023/08/15 09:27:30;;;;;;;2.25;1.20;;;24.90;99.90;;;;;;5023077;28;20426;-61
2023/08/15 09:29:55;;;;;;;5.95;0.98;;;25.00;99.90;;;;;;5023353;28;20021;-60
2023/08/15 09:32:22;;;;;;;1.98;1.00;;;25.10;99.90;;;;;;5020509;28;20668;-59
2023/08/15 09:34:47;;;;;;;3.78;1.20;;;25.10;99.90;;;;;;5022973;28;20040;-61
2023/08/15 09:37:13;;;;;;;7.43;1.50;;;25.20;99.90;;;;;;5021441;28;20029;-59
2023/08/15 09:39:39;;;;;;;3.58;0.82;;;25.40;99.90;;;;;;5021481;28;20052;-60
2023/08/15 09:42:05;;;;;;;3.40;1.48;;;25.50;99.90;;;;;;5026851;28;20058;-60
2023/08/15 09:44:33;;;;;;;2.38;0.80;;;25.70;99.90;;;;;;5021440;28;20037;-59
2023/08/15 09:47:00;;;;;;;0.98;0.75;;;25.80;99.90;;;;;;5020505;28;20037;-58
2023/08/15 09:49:30;;;;;;;4.00;1.10;;;25.90;99.90;;;;;;5021531;28;20661;-60
2023/08/15 09:51:59;;;;;;;1.60;0.80;;;26.10;99.90;;;;;;5023568;28;20029;-62
2023/08/15 09:54:25;;;;;;;1.10;0.77;;;26.20;99.90;;;;;;5025319;28;20033;-62
2023/08/15 09:56:51;;;;;;;3.10;0.90;;;26.20;99.90;;;;;;5026783;28;20034;-60
2023/08/15 09:59:17;;;;;;;1.73;1.17;;;26.30;99.90;;;;;;5024205;28;20025;-62
2023/08/15 10:01:46;;;;;;;1.42;0.85;;;26.40;99.90;;;;;;5021695;28;20036;-62
2023/08/15 10:04:14;;;;;;;1.48;0.77;;;26.50;99.90;;;;;;5023399;28;20034;-61
2023/08/15 10:06:42;;;;;;;1.00;0.90;;;26.50;99.90;;;;;;5024145;28;20112;-60
2023/08/15 10:09:09;;;;;;;1.45;0.68;;;26.50;99.90;;;;;;5023068;28;20112;-62
2023/08/15 10:11:39;;;;;;;1.15;0.60;;;26.40;99.90;;;;;;5020971;28;20173;-61
2023/08/15 10:14:07;;;;;;;3.20;0.90;;;26.50;99.90;;;;;;5020649;28;20083;-59
2023/08/15 10:16:33;;;;;;;4.25;0.73;;;26.60;99.90;;;;;;5021347;28;20396;-61
2023/08/15 10:18:58;;;;;;;3.75;0.70;;;26.70;99.90;;;;;;5022929;28;20040;-58
2023/08/15 10:21:26;;;;;;;1.80;0.73;;;26.80;99.90;;;;;;5023331;28;20030;-60
2023/08/15 10:23:53;;;;;;;4.03;1.10;;;26.80;99.90;;;;;;5027627;28;20029;-59
2023/08/15 10:26:19;;;;;;;1.77;0.90;;;26.90;99.90;;;;;;5021482;28;20024;-59
2023/08/15 10:28:46;;;;;;;4.25;1.23;;;26.90;99.70;;;;;;5020293;28;20033;-59
2023/08/15 10:31:11;;;;;;;2.08;1.45;;;26.90;99.60;;;;;;5019723;28;20117;-61
2023/08/15 10:33:38;;;;;;;1.38;0.73;;;26.90;99.90;;;;;;5018966;28;20108;-60
2023/08/15 10:36:03;;;;;;;1.10;1.00;;;27.10;99.50;;;;;;5024933;28;20476;-61
2023/08/15 10:38:31;;;;;;;1.48;0.93;;;27.10;99.50;;;;;;5022249;28;20045;-60
2023/08/15 10:41:05;;;;;;;2.20;0.90;;;27.20;99.80;;;;;;5021473;28;20547;-61
2023/08/15 10:43:33;;;;;;;1.50;0.90;;;27.40;99.60;;;;;;5022281;28;20496;-61
2023/08/15 10:46:01;;;;;;;4.68;0.95;;;27.60;99.30;;;;;;5022048;28;21107;-59
2023/08/15 10:48:50;;;;;;;2.00;0.90;;;27.70;98.70;;;;;;5028734;28;20033;-61
2023/08/15 10:51:24;;;;;;;2.00;0.50;;;27.60;98.50;;;;;;5022571;28;20053;-61
2023/08/15 10:53:54;;;;;;;2.15;1.30;;;27.40;98.30;;;;;;5042568;28;20074;-60
2023/08/15 10:56:23;;;;;;;2.97;0.95;;;27.30;99.00;;;;;;5034849;28;20030;-60
2023/08/15 10:58:49;;;;;;;1.85;0.90;;;27.40;99.10;;;;;;5033145;28;20497;-62
2023/08/15 11:01:22;;;;;;;1.33;0.73;;;27.60;98.50;;;;;;5023995;28;22188;-62
2023/08/15 11:03:50;;;;;;;2.60;0.70;;;27.80;98.20;;;;;;5024801;28;20041;-62
2023/08/15 11:06:16;;;;;;;2.10;1.15;;;27.80;98.60;;;;;;5023270;28;20643;-60
2023/08/15 11:08:49;;;;;;;2.35;1.10;;;27.90;98.30;;;;;;5020916;28;20032;-62
2023/08/15 11:11:16;;;;;;;1.15;1.00;;;28.00;98.40;;;;;;5021779;28;20033;-61
2023/08/15 11:13:46;;;;;;;4.63;1.67;;;28.00;98.20;;;;;;5021364;28;20075;-60
2023/08/15 11:16:15;;;;;;;0.90;0.90;;;28.10;98.00;;;;;;5021067;28;20444;-60
2023/08/15 11:18:41;;;;;;;1.20;0.80;;;28.40;96.60;;;;;;5018769;28;20086;-60
2023/08/15 11:21:08;;;;;;;0.80;0.50;;;28.40;97.10;;;;;;5022384;28;20029;-62
2023/08/15 11:23:34;;;;;;;0.80;0.77;;;28.40;96.50;;;;;;5018710;28;20033;-61
2023/08/15 11:26:18;;;;;;;4.68;0.98;;;28.40;96.80;;;;;;5019890;28;20095;-63
2023/08/15 11:28:44;;;;;;;0.95;0.70;;;28.40;95.30;;;;;;5022573;28;20499;-61
2023/08/15 11:31:14;;;;;;;1.42;0.70;;;28.30;95.60;;;;;;5018779;28;20084;-59
2023/08/15 11:33:40;;;;;;;1.10;0.82;;;28.30;95.40;;;;;;5017555;28;20496;-60
2023/08/15 11:36:08;;;;;;;0.98;0.50;;;28.40;95.60;;;;;;5019957;28;20112;-60
2023/08/15 11:38:34;;;;;;;2.92;1.30;;;28.50;95.10;;;;;;5019414;28;20044;-60
2023/08/15 11:41:01;;;;;;;1.75;0.90;;;28.70;95.60;;;;;;5019398;28;20044;-61
2023/08/15 11:43:29;;;;;;;0.98;0.70;;;28.80;95.00;;;;;;5019950;28;20025;-60
2023/08/15 11:45:55;;;;;;;2.55;1.20;;;28.90;94.50;;;;;;5020040;28;20036;-61
2023/08/15 11:48:21;;;;;;;1.65;0.75;;;28.80;94.50;;;;;;5024429;28;20029;-61
2023/08/15 11:50:47;;;;;;;3.58;0.75;;;28.90;93.10;;;;;;5017348;28;20040;-61
2023/08/15 11:53:15;;;;;;;2.78;0.70;;;28.80;93.00;;;;;;5021971;28;20476;-61
2023/08/15 11:55:41;;;;;;;2.95;1.00;;;28.70;93.10;;;;;;5028781;28;20432;-60
2023/08/15 11:58:29;;;;;;;0.77;0.75;;;28.80;93.30;;;;;;5022161;28;20053;-62
2023/08/15 12:00:55;;;;;;;1.95;1.20;;;28.80;93.30;;;;;;5016194;28;20045;-60
2023/08/15 12:03:24;;;;;;;2.88;0.98;;;28.90;93.00;;;;;;5021476;28;20472;-61
2023/08/15 12:05:55;;;;;;;3.65;1.35;;;29.00;93.20;;;;;;5016222;28;20037;-62
2023/08/15 12:08:24;;;;;;;2.13;0.70;;;29.10;92.40;;;;;;5020606;28;20025;-60
2023/08/15 12:10:56;;;;;;;1.52;0.68;;;29.10;92.30;;;;;;5019699;28;20086;-60
2023/08/15 12:13:33;;;;;;;0.95;0.63;;;29.20;92.30;;;;;;5021548;28;20040;-61
2023/08/15 12:16:00;;;;;;;1.40;0.68;;;29.20;92.20;;;;;;5019566;28;20029;-61
2023/08/15 12:18:25;;;;;;;0.95;0.80;;;29.30;92.10;;;;;;5021018;28;20510;-62
2023/08/15 12:20:51;;;;;;;2.42;0.80;;;29.40;92.40;;;;;;5016186;28;20033;-62
2023/08/15 12:23:16;;;;;;;0.90;0.70;;;29.50;91.90;;;;;;5020162;28;20119;-61
2023/08/15 12:25:42;;;;;;;1.20;0.50;;;29.40;91.10;;;;;;5016120;28;20032;-61
2023/08/15 12:28:08;;;;;;;1.35;0.80;;;29.40;91.50;;;;;;5021450;28;20022;-61
2023/08/15 12:30:34;;;;;;;2.08;1.00;;;29.40;91.30;;;;;;5018670;28;20064;-60
2023/08/15 12:33:00;;;;;;;1.95;0.77;;;29.40;91.10;;;;;;5021691;28;20172;-61
2023/08/15 12:35:26;;;;;;;1.55;0.50;;;29.30;90.60;;;;;;5018511;28;20087;-61
2023/08/15 12:37:52;;;;;;;1.30;0.90;;;29.00;90.60;;;;;;5023439;28;20056;-60
2023/08/15 12:40:18;;;;;;;2.13;0.88;;;28.80;90.70;;;;;;5022105;28;20587;-61
2023/08/15 12:42:43;;;;;;;0.57;0.50;;;28.80;90.80;;;;;;5020969;28;20037;-60
2023/08/15 12:45:09;;;;;;;1.33;0.98;;;29.00;91.40;;;;;;5017585;28;20507;-62